Latest Weather Observations for Walpole North

IDW60801

Issued at 3:32 pm WST Sunday 19 April 2015 (issued every 30 minutes, with the page automatically refreshed every 10 minutes)

About weather observations | Map of weather stations | Latest weather observations for WA | Other Formats
Station Details ID: 009998 Name: NORTH WALPOLE Lat: -34.95 Lon: 116.72 Height: 73.0 m
Data from the previous 72 hours. | See also: Recent months at Walpole North
Date/Time
WST
Temp
°C
App
Temp
°C
Dew
Point
Rel
Hum
%
Delta-T
°C
Wind Press
QNH
hPa
Press
MSL
hPa
Rain
since 9 am
mm
Dir
 
Spd
km/h
Gust
km/h
Spd
kts
Gust
kts
19/03:30pm 25.0 23.8 11.6 43 7.6 N 9 13 5 7 1025.5 1025.4 0.0
19/03:00pm 25.1 24.9 13.0 47 7.0 NNE 6 11 3 6 1025.5 1025.4 0.0
19/02:30pm 24.9 24.0 12.5 46 7.2 NNW 9 17 5 9 1025.3 1025.2 0.0
19/02:00pm 25.0 24.8 13.5 48 6.7 N 7 13 4 7 1025.4 1025.3 0.0
19/01:30pm 24.0 22.7 12.6 49 6.6 N 11 17 6 9 1025.5 1025.4 0.0
19/01:00pm 23.8 23.0 12.8 50 6.3 N 9 15 5 8 1025.8 1025.7 0.0
19/12:30pm 22.9 22.2 13.1 54 5.7 N 9 17 5 9 1026.1 1026.0 0.0
19/12:00pm 22.3 20.5 13.4 57 5.1 NNW 15 24 8 13 1026.8 1026.7 0.0
19/11:30am 21.5 19.6 12.9 58 4.9 N 15 26 8 14 1026.9 1026.8 0.0
19/11:00am 20.6 18.8 13.3 63 4.2 N 15 26 8 14 1027.2 1027.1 0.0
19/10:30am 19.5 18.7 13.0 66 3.7 N 9 19 5 10 1027.3 1027.2 0.0
19/10:00am 18.7 17.7 12.2 66 3.6 NNE 9 20 5 11 1027.3 1027.2 0.0
19/09:30am 17.5 17.0 12.2 71 2.9 N 6 15 3 8 1027.5 1027.4 0.0
19/09:00am 16.3 15.1 11.7 74 2.5 NNE 9 19 5 10 1027.7 1027.6 0.0
19/08:30am 14.7 11.3 10.7 77 2.1 NE 19 28 10 15 1027.7 1027.6 0.0
19/08:00am 13.5 10.0 10.1 80 1.8 NNE 19 32 10 17 1027.3 1027.2 0.0
19/07:30am 12.9 9.4 10.1 83 1.4 NE 19 30 10 16 1027.0 1026.9 0.0
19/07:00am 12.5 8.3 9.9 84 1.3 NE 22 35 12 19 1026.7 1026.6 0.0
19/06:30am 12.3 8.5 9.9 85 1.2 NNE 20 32 11 17 1026.6 1026.5 0.0
19/06:00am 12.4 8.2 9.8 84 1.3 NE 22 32 12 17 1026.6 1026.5 0.0
19/05:30am 12.7 7.8 10.1 84 1.3 NE 26 39 14 21 1026.5 1026.4 0.0
19/05:00am 12.8 8.3 10.2 84 1.3 NE 24 39 13 21 1026.4 1026.3 0.0
19/04:30am 12.8 8.0 10.2 84 1.3 NE 26 41 14 22 1026.3 1026.2 0.0
19/04:00am 12.9 9.2 10.3 84 1.3 NE 20 32 11 17 1026.2 1026.1 0.0
19/03:30am 12.8 9.1 10.3 85 1.3 NE 20 33 11 18 1026.4 1026.3 0.0
19/03:00am 12.9 9.4 10.3 84 1.3 NE 19 30 10 16 1026.3 1026.2 0.0
19/02:30am 13.0 9.6 10.4 84 1.4 NE 19 26 10 14 1026.6 1026.5 0.0
19/02:00am 12.9 9.8 10.4 85 1.3 NE 17 26 9 14 1026.6 1026.5 0.0
19/01:30am 12.8 9.7 10.3 85 1.3 NE 17 26 9 14 1026.7 1026.6 0.0
19/01:00am 12.9 10.2 10.3 84 1.3 NE 15 24 8 13 1026.9 1026.8 0.0
19/12:30am 13.0 10.3 10.4 84 1.4 NE 15 24 8 13 1027.1 1027.0 0.0
19/12:00am 13.1 10.8 10.6 85 1.3 ENE 13 19 7 10 1027.1 1027.0 0.0
 
Date/Time
WST
Temp
°C
App
Temp
°C
Dew
Point
Rel
Hum
%
Delta-T
°C
Wind Press
QNH
hPa
Press
MSL
hPa
Rain
since 9 am
mm
Dir
 
Spd
km/h
Gust
km/h
Spd
kts
Gust
kts
18/11:30pm 13.0 11.5 10.4 84 1.4 E 9 13 5 7 1027.2 1027.1 0.0
18/11:00pm 13.3 11.0 10.5 83 1.5 ENE 13 22 7 12 1027.3 1027.2 0.0
18/10:30pm 13.5 11.6 10.5 82 1.6 ENE 11 15 6 8 1027.4 1027.3 0.0
18/10:00pm 13.4 11.9 10.4 82 1.6 E 9 15 5 8 1027.4 1027.3 0.0
18/09:30pm 13.6 11.6 10.2 80 1.8 ENE 11 17 6 9 1027.4 1027.3 0.0
18/09:00pm 14.0 12.5 10.4 79 1.9 E 9 15 5 8 1027.5 1027.4 0.0
18/08:30pm 14.2 12.2 10.2 77 2.1 ENE 11 17 6 9 1027.4 1027.3 0.0
18/08:00pm 14.9 13.0 10.5 75 2.3 E 11 20 6 11 1027.3 1027.2 0.0
18/07:30pm 15.3 13.5 10.9 75 2.3 E 11 22 6 12 1027.3 1027.2 0.0
18/07:00pm 15.6 13.6 11.6 77 2.2 E 13 19 7 10 1027.1 1027.0 0.0
18/06:30pm 15.7 15.0 11.9 78 2.1 E 7 11 4 6 1026.8 1026.7 0.0
18/06:00pm 16.0 14.5 12.0 77 2.2 E 11 17 6 9 1026.6 1026.5 0.0
18/05:30pm 16.1 14.7 12.1 77 2.2 E 11 17 6 9 1026.3 1026.2 0.0
18/05:00pm 16.3 15.2 12.1 76 2.3 E 9 15 5 8 1026.2 1026.1 0.0
18/04:30pm 16.6 14.8 12.2 75 2.4 E 13 20 7 11 1026.1 1026.0 0.0
18/04:00pm 16.9 14.7 12.2 74 2.6 E 15 24 8 13 1026.0 1025.9 0.0
18/03:30pm 16.8 14.7 12.3 75 2.5 E 15 20 8 11 1026.0 1025.9 0.0
18/03:00pm 16.9 15.6 12.4 75 2.5 E 11 15 6 8 1026.0 1025.9 0.0
18/02:30pm 17.1 15.8 12.6 75 2.5 E 11 20 6 11 1025.8 1025.7 0.0
18/02:00pm 17.3 14.9 12.6 74 2.6 ENE 17 28 9 15 1025.8 1025.7 0.0
18/01:30pm 16.8 14.3 12.3 75 2.5 ENE 17 24 9 13 1025.9 1025.8 0.0
18/01:00pm 16.6 14.1 12.2 75 2.4 E 17 26 9 14 1026.1 1026.0 0.0
18/12:30pm 16.6 14.4 12.2 75 2.4 ENE 15 24 8 13 1026.6 1026.5 0.0
18/12:00pm 16.7 14.2 12.3 75 2.4 ENE 17 26 9 14 1026.8 1026.7 0.0
18/11:30am 16.2 13.2 12.0 76 2.3 E 19 26 10 14 1027.1 1027.0 0.0
18/11:00am 16.2 13.3 12.2 77 2.2 E 19 28 10 15 1027.3 1027.2 0.0
18/10:30am 16.7 14.6 13.6 82 1.8 E 17 22 9 12 1027.3 1027.2 0.0
18/10:00am 15.8 14.7 14.3 91 0.9 ENE 13 26 7 14 1027.2 1027.1 0.0
18/09:30am 15.8 15.2 15.6 99 0.1 ENE 13 22 7 12 1027.1 1027.0 0.0
18/09:00am 15.0 14.2 15.0 100 0.0 ENE 13 24 7 13 1027.0 1026.9 3.0
18/08:30am 13.8 12.1 13.6 99 0.1 ENE 15 24 8 13 1026.8 1026.7 3.0
18/08:00am 13.6 12.3 13.6 100 0.0 E 13 20 7 11 1026.4 1026.3 3.0
18/07:30am 13.5 11.8 13.5 100 0.0 ENE 15 24 8 13 1025.8 1025.7 3.0
18/07:00am 13.8 12.2 13.8 100 0.0 E 15 26 8 14 1025.3 1025.2 3.0
18/06:30am 13.9 12.7 13.9 100 0.0 ESE 13 17 7 9 1025.1 1025.0 2.8
18/06:00am 14.1 12.9 14.1 100 0.0 E 13 19 7 10 1024.8 1024.7 2.8
18/05:30am 14.2 12.6 14.0 99 0.1 SE 15 22 8 12 1024.7 1024.6 2.8
18/05:00am 14.5 13.8 14.3 99 0.1 SE 11 24 6 13 1024.4 1024.3 2.4
18/04:30am 14.6 13.2 14.4 99 0.1 ESE 15 19 8 10 1024.0 1023.9 2.2
18/04:00am 14.7 12.9 14.5 99 0.1 ESE 17 20 9 11 1023.8 1023.7 2.2
18/03:30am 14.7 12.9 14.5 99 0.1 ESE 17 20 9 11 1023.6 1023.5 2.2
18/03:00am 14.9 13.6 14.7 99 0.1 ESE 15 20 8 11 1023.6 1023.5 2.0
18/02:30am 15.0 12.9 14.8 99 0.1 SE 19 26 10 14 1023.5 1023.4 2.0
18/02:00am 14.3 14.1 13.7 96 0.3 ENE 7 9 4 5 1023.4 1023.2 1.4
18/01:30am 14.4 14.1 13.3 93 0.6 SW 7 11 4 6 1023.0 1022.8 0.8
18/01:00am 14.8 14.1 13.3 91 0.8 NNW 9 11 5 6 1022.7 1022.5 0.0
18/12:30am 14.5 15.3 12.4 87 1.1 CALM 0 0 0 0 1022.8 1022.6 0.0
18/12:00am 15.1 14.6 12.2 83 1.6 WNW 6 9 3 5 1023.0 1022.8 0.0
 
Date/Time
WST
Temp
°C
App
Temp
°C
Dew
Point
Rel
Hum
%
Delta-T
°C
Wind Press
QNH
hPa
Press
MSL
hPa
Rain
since 9 am
mm
Dir
 
Spd
km/h
Gust
km/h
Spd
kts
Gust
kts
17/11:30pm 15.2 14.7 12.1 82 1.7 WNW 6 9 3 5 1022.9 1022.7 0.0
17/11:00pm 15.8 15.4 12.4 80 1.9 WNW 6 7 3 4 1022.9 1022.7 0.0
17/10:30pm 15.8 15.4 12.4 80 1.9 WNW 6 9 3 5 1023.1 1022.9 0.0
17/10:00pm 15.9 15.3 12.3 79 2.0 WNW 7 11 4 6 1023.1 1022.9 0.0
17/09:30pm 16.1 15.7 12.3 78 2.1 W 6 9 3 5 1023.0 1022.8 0.0
17/09:00pm 16.1 15.5 12.3 78 2.1 W 7 11 4 6 1022.9 1022.7 0.0
17/08:30pm 15.7 14.7 12.3 80 1.9 WSW 9 11 5 6 1022.8 1022.6 0.0
17/08:00pm 15.2 14.5 12.0 81 1.7 WSW 7 11 4 6 1022.7 1022.5 0.0
17/07:30pm 14.8 13.8 11.0 78 2.0 WSW 7 7 4 4 1022.6 1022.4 0.0
17/07:00pm 15.4 14.6 11.2 76 2.2 WSW 6 7 3 4 1022.6 1022.4 0.0
17/06:30pm 15.5 14.7 11.1 75 2.4 WSW 6 9 3 5 1022.3 1022.1 0.0
17/06:00pm 15.7 14.7 11.1 74 2.5 WSW 7 9 4 5 1022.1 1021.9 0.0
17/05:30pm 16.9 16.1 11.8 72 2.8 WSW 7 13 4 7 1022.1 1021.9 0.0
17/05:00pm 17.3 15.4 11.8 70 3.0 WSW 13 20 7 11 1022.0 1021.8 0.0
17/04:30pm 17.8 16.5 12.5 71 3.0 WSW 11 17 6 9 1022.0 1021.8 0.0
17/04:00pm 17.7 16.0 12.6 72 2.8 WSW 13 20 7 11 1022.1 1021.9 0.0
17/03:30pm 18.2 16.5 12.6 70 3.1 W 13 24 7 13 1022.1 1021.9 0.0
17/03:00pm 18.8 17.7 13.2 70 3.2 W 11 17 6 9 1022.0 1021.8 0.0
17/02:30pm 18.8 17.0 13.2 70 3.2 W 15 28 8 15 1022.2 1022.0 0.0
17/02:00pm 18.9 16.9 12.6 67 3.5 WSW 15 24 8 13 1022.3 1022.1 0.0
17/01:30pm 18.6 16.2 12.6 68 3.4 W 17 24 9 13 1022.5 1022.3 0.0
17/01:00pm 18.8 16.7 12.5 67 3.5 W 15 24 8 13 1022.7 1022.5 0.0
17/12:30pm 18.7 16.6 12.5 67 3.5 W 15 26 8 14 1023.3 1023.1 0.0
17/12:00pm 18.6 15.9 11.7 64 3.8 W 17 30 9 16 1023.7 1023.6 0.0
17/11:30am 18.9 17.7 12.9 68 3.4 WNW 11 20 6 11 1024.1 1024.0 0.0
17/11:00am 18.1 16.2 11.7 66 3.5 WNW 13 17 7 9 1024.5 1024.4 0.0
17/10:30am 17.8 15.9 11.8 68 3.3 NW 13 15 7 8 1025.0 1024.9 0.0
17/10:00am 17.2 14.4 11.2 68 3.2 NNW 17 22 9 12 1025.3 1025.2 0.0
17/09:30am 16.9 15.5 13.4 80 2.0 NNW 13 20 7 11 1025.6 1025.5 0.0
17/09:00am 15.7 15.0 14.2 91 0.8 NNW 11 17 6 9 1025.8 1025.7 0.2
17/08:30am 14.1 13.6 13.9 99 0.1 NNW 9 15 5 8 1026.0 1025.9 0.2
17/08:00am 12.5 12.9 12.5 100 0.0 NNW 2 9 1 5 1026.1 1026.0 0.2
17/07:30am 10.8 11.0 10.6 99 0.1 CALM 0 0 0 0 1026.2 1026.1 0.2
17/07:00am 9.8 9.8 9.7 99 0.0 CALM 0 0 0 0 1026.0 1025.9 0.2
17/06:30am 9.4 9.3 9.3 99 0.0 CALM 0 0 0 0 1026.2 1026.1 0.2
17/06:00am 9.4 9.3 9.3 99 0.0 CALM 0 0 0 0 1026.2 1026.1 0.0
17/05:30am 9.5 9.4 9.4 99 0.0 CALM 0 0 0 0 1026.3 1026.2 0.0
17/05:00am 9.4 9.3 9.3 99 0.0 CALM 0 0 0 0 1026.5 1026.4 0.0
17/04:30am 9.3 9.1 9.2 99 0.0 CALM 0 0 0 0 1026.6 1026.5 0.0
17/04:00am 9.4 9.3 9.3 99 0.0 CALM 0 0 0 0 1026.6 1026.5 0.0
17/03:30am 9.3 9.1 9.2 99 0.0 CALM 0 0 0 0 1026.5 1026.4 0.0
17/03:00am 9.4 9.3 9.3 99 0.0 CALM 0 0 0 0 1026.7 1026.6 0.0
17/02:30am 9.5 9.4 9.4 99 0.0 CALM 0 0 0 0 1027.2 1027.1 0.0
17/02:00am 9.7 9.6 9.6 99 0.0 CALM 0 0 0 0 1027.4 1027.3 0.0
17/01:30am 9.7 9.6 9.6 99 0.1 CALM 0 0 0 0 1027.5 1027.4 0.0
17/01:00am 9.9 9.9 9.8 99 0.0 CALM 0 0 0 0 1027.6 1027.5 0.0
17/12:30am 10.5 10.6 10.0 97 0.3 CALM 0 0 0 0 1027.5 1027.4 0.0
17/12:00am 11.1 11.4 10.8 98 0.2 CALM 0 0 0 0 1027.7 1027.6 0.0
 
Date/Time
WST
Temp
°C
App
Temp
°C
Dew
Point
Rel
Hum
%
Delta-T
°C
Wind Press
QNH
hPa
Press
MSL
hPa
Rain
since 9 am
mm
Dir
 
Spd
km/h
Gust
km/h
Spd
kts
Gust
kts
16/11:30pm 11.0 11.2 10.5 97 0.3 CALM 0 0 0 0 1028.0 1027.9 0.0
16/11:00pm 11.0 11.2 10.4 96 0.3 CALM 0 0 0 0 1028.2 1028.1 0.0
16/10:30pm 11.4 11.6 10.6 95 0.4 CALM 0 0 0 0 1028.1 1028.0 0.0
16/10:00pm 11.5 11.7 10.6 94 0.5 CALM 0 0 0 0 1028.7 1028.6 0.0
16/09:30pm 11.6 11.7 10.2 91 0.7 CALM 0 0 0 0 1028.9 1028.8 0.0
16/09:00pm 12.4 12.7 10.8 90 0.8 CALM 0 0 0 0 1029.1 1029.0 0.0
16/08:30pm 12.9 13.2 11.0 88 1.0 CALM 0 0 0 0 1029.0 1028.9 0.0
16/08:00pm 13.2 13.6 11.1 87 1.1 CALM 0 0 0 0 1029.0 1028.9 0.0
16/07:30pm 13.3 13.6 10.8 85 1.3 CALM 0 6 0 3 1029.1 1029.0 0.0
16/07:00pm 13.6 12.4 10.2 80 1.8 ENE 7 9 4 5 1029.0 1028.9 0.0
16/06:30pm 14.3 14.3 9.9 75 2.3 CALM 0 0 0 0 1028.8 1028.7 0.0
16/06:00pm 15.5 15.7 10.5 72 2.6 CALM 0 0 0 0 1028.7 1028.6 0.0
16/05:30pm 16.7 15.7 11.0 69 3.1 SSW 7 11 4 6 1028.8 1028.7 0.0
16/05:00pm 17.2 16.3 11.2 68 3.2 SSW 7 11 4 6 1029.0 1028.9 0.0
16/04:30pm 17.7 16.4 11.3 66 3.5 SSW 9 13 5 7 1029.1 1029.0 0.0
16/04:00pm 18.0 16.6 10.9 63 3.8 WSW 9 17 5 9 1029.2 1029.1 0.0

Other Formats:

Comma delimited format used in spreadsheet applications
http://www.bom.gov.au/fwo/IDW60801/IDW60801.95647.axf

JavaScript Object Notation format (JSON) in row-major order
http://www.bom.gov.au/fwo/IDW60801/IDW60801.95647.json